createdAt,value
2023-04-17T00:01:07.963Z,101956.66
2023-04-17T00:03:35.324Z,101960.78
2023-04-17T00:06:03.495Z,101955.06
2023-04-17T00:08:31.280Z,101947.91
2023-04-17T00:11:07.227Z,101947.91
2023-04-17T00:13:36.822Z,101946.56
2023-04-17T00:16:04.215Z,101944.25
2023-04-17T00:18:31.558Z,101940.72
2023-04-17T00:20:58.815Z,101931.00
2023-04-17T00:23:26.184Z,101925.25
2023-04-17T00:25:53.422Z,101930.59
2023-04-17T00:28:20.733Z,101932.13
2023-04-17T00:30:48.201Z,101928.59
2023-04-17T00:33:15.815Z,101923.00
2023-04-17T00:35:43.168Z,101924.53
2023-04-17T00:38:10.852Z,101921.00
2023-04-17T00:40:38.099Z,101924.16
2023-04-17T00:43:07.897Z,101922.16
2023-04-17T00:45:35.629Z,101924.41
2023-04-17T00:48:04.848Z,101917.56
2023-04-17T00:50:33.049Z,101918.31
2023-04-17T00:53:00.859Z,101914.16
2023-04-17T00:55:29.087Z,101912.75
2023-04-17T00:57:56.898Z,101911.09
2023-04-17T01:00:24.704Z,101905.63
2023-04-17T01:02:52.511Z,101897.94
2023-04-17T01:05:20.648Z,101895.78
2023-04-17T01:07:48.340Z,101902.59
2023-04-17T01:10:15.743Z,101892.19
2023-04-17T01:12:46.697Z,101898.28
2023-04-17T01:15:14.142Z,101897.16
2023-04-17T01:17:41.511Z,101894.38
2023-04-17T01:20:10.839Z,101896.91
2023-04-17T01:22:38.172Z,101894.44
2023-04-17T01:25:06.654Z,101904.59
2023-04-17T01:27:36.815Z,101896.66
2023-04-17T01:30:04.430Z,101900.00
2023-04-17T01:32:36.579Z,101902.22
2023-04-17T01:35:04.141Z,101886.53
2023-04-17T01:37:31.509Z,101900.03
2023-04-17T01:39:59.270Z,101888.16
2023-04-17T01:42:26.895Z,101892.56
2023-04-17T01:44:54.161Z,101896.16
2023-04-17T01:47:21.417Z,101896.13
2023-04-17T01:49:48.666Z,101894.16
2023-04-17T01:52:16.012Z,101898.84
2023-04-17T01:54:43.473Z,101900.19
2023-04-17T01:57:10.956Z,101895.44
2023-04-17T01:59:38.219Z,101890.06
2023-04-17T02:02:05.872Z,101903.66
2023-04-17T02:04:33.286Z,101913.78
2023-04-17T02:07:00.647Z,101914.09
2023-04-17T02:09:27.912Z,101913.00
2023-04-17T02:11:56.250Z,101910.81
2023-04-17T02:14:23.594Z,101908.88
2023-04-17T02:16:50.961Z,101905.31
2023-04-17T02:19:18.185Z,101900.63
2023-04-17T02:21:45.648Z,101905.25
2023-04-17T02:24:12.957Z,101900.88
2023-04-17T02:26:40.677Z,101895.69
2023-04-17T02:29:07.968Z,101895.41
2023-04-17T02:31:36.747Z,101893.19
2023-04-17T02:34:04.410Z,101891.84
2023-04-17T02:36:32.201Z,101897.31
2023-04-17T02:38:59.587Z,101897.06
2023-04-17T02:41:26.799Z,101892.91
2023-04-17T02:43:54.359Z,101898.44
2023-04-17T02:46:21.650Z,101888.00
2023-04-17T02:48:48.942Z,101897.06
2023-04-17T02:51:16.238Z,101890.44
2023-04-17T02:53:43.562Z,101896.19
2023-04-17T02:56:10.874Z,101893.72
2023-04-17T02:58:39.895Z,101893.47
2023-04-17T03:01:09.028Z,101891.03
2023-04-17T03:03:41.376Z,101889.38
2023-04-17T03:06:11.782Z,101888.53
2023-04-17T03:08:39.086Z,101885.78
2023-04-17T03:11:06.645Z,101884.13
2023-04-17T03:13:36.498Z,101889.09
2023-04-17T03:16:04.795Z,101887.47
2023-04-17T03:18:35.896Z,101888.28
2023-04-17T03:21:03.519Z,101888.84
2023-04-17T03:23:30.790Z,101891.00
2023-04-17T03:25:58.564Z,101891.56
2023-04-17T03:28:26.124Z,101887.44
2023-04-17T03:30:54.936Z,101889.91
2023-04-17T03:33:22.637Z,101880.03
2023-04-17T03:35:49.944Z,101876.72
2023-04-17T03:38:17.808Z,101883.88
2023-04-17T03:40:45.288Z,101891.84
2023-04-17T03:43:12.933Z,101889.94
2023-04-17T03:45:40.247Z,101893.25
2023-04-17T03:48:07.616Z,101902.56
2023-04-17T03:50:36.128Z,101898.44
2023-04-17T03:53:03.472Z,101896.22
2023-04-17T03:55:31.692Z,101898.97
2023-04-17T03:57:59.259Z,101890.75
2023-04-17T04:00:31.679Z,101906.41
2023-04-17T04:03:04.459Z,101909.97
2023-04-17T04:05:38.608Z,101903.94
2023-04-17T04:08:07.493Z,101905.59
2023-04-17T04:10:44.288Z,101909.16
2023-04-17T04:13:14.043Z,101911.06
2023-04-17T04:15:44.519Z,101909.16
2023-04-17T04:18:12.608Z,101911.34
2023-04-17T04:20:39.918Z,101903.13
2023-04-17T04:23:16.653Z,101902.81
2023-04-17T04:25:45.065Z,101903.09
2023-04-17T04:28:24.025Z,101909.44
2023-04-17T04:30:53.007Z,101903.94
2023-04-17T04:33:22.002Z,101911.09
2023-04-17T04:35:49.489Z,101915.19
2023-04-17T04:38:17.691Z,101915.47
2023-04-17T04:40:49.948Z,101912.72
2023-04-17T04:43:18.152Z,101912.38
2023-04-17T04:45:47.893Z,101926.66
2023-04-17T04:48:15.489Z,101921.22
2023-04-17T04:50:42.832Z,101925.38
2023-04-17T04:53:10.440Z,101931.16
2023-04-17T04:55:49.194Z,101924.81
2023-04-17T04:58:16.429Z,101928.38
2023-04-17T05:00:45.575Z,101932.22
2023-04-17T05:03:19.597Z,101922.34
2023-04-17T05:05:48.235Z,101930.31
2023-04-17T05:08:17.500Z,101927.03
2023-04-17T05:10:53.867Z,101925.09
2023-04-17T05:13:21.161Z,101925.09
2023-04-17T05:15:49.191Z,101926.47
2023-04-17T05:18:19.226Z,101927.28
2023-04-17T05:20:46.798Z,101923.47
2023-04-17T05:23:14.161Z,101926.50
2023-04-17T05:25:41.517Z,101927.84
2023-04-17T05:28:09.200Z,101934.72
2023-04-17T05:30:36.665Z,101934.47
2023-04-17T05:33:29.810Z,101934.97
2023-04-17T05:36:01.166Z,101937.47
2023-04-17T05:38:32.165Z,101942.41
2023-04-17T05:40:59.744Z,101943.22
2023-04-17T05:43:27.056Z,101935.81
2023-04-17T05:45:55.076Z,101935.81
2023-04-17T05:48:22.637Z,101939.91
2023-04-17T05:50:51.792Z,101938.28
2023-04-17T05:53:19.343Z,101938.31
2023-04-17T05:55:50.890Z,101942.44
2023-04-17T05:58:23.702Z,101935.81
2023-04-17T06:00:54.720Z,101938.53
2023-04-17T06:03:22.314Z,101934.19
2023-04-17T06:05:57.256Z,101935.81
2023-04-17T06:08:25.525Z,101938.28
2023-04-17T06:10:53.196Z,101938.56
2023-04-17T06:13:21.270Z,101937.47
2023-04-17T06:15:51.563Z,101937.19
2023-04-17T06:18:19.342Z,101942.44
2023-04-17T06:20:46.903Z,101945.44
2023-04-17T06:23:14.191Z,101946.56
2023-04-17T06:25:42.696Z,101942.69
2023-04-17T06:28:10.450Z,101942.69
2023-04-17T06:30:38.223Z,101946.25
2023-04-17T06:33:06.952Z,101947.66
2023-04-17T06:35:36.430Z,101950.41
2023-04-17T06:38:15.049Z,101951.50
2023-04-17T06:40:44.209Z,101953.97
2023-04-17T06:43:12.214Z,101956.72
2023-04-17T06:45:43.089Z,101957.84
2023-04-17T06:48:10.602Z,101959.47
2023-04-17T06:50:39.518Z,101960.00
2023-04-17T06:53:07.354Z,101963.34
2023-04-17T06:55:34.780Z,101959.44
2023-04-17T06:58:03.082Z,101965.50
2023-04-17T07:00:30.473Z,101971.00
2023-04-17T07:02:57.994Z,101964.97
2023-04-17T07:05:25.475Z,101975.16
2023-04-17T07:07:54.475Z,101974.31
2023-04-17T07:10:21.760Z,101970.75
2023-04-17T07:12:49.103Z,101979.50
2023-04-17T07:15:16.674Z,101976.22
2023-04-17T07:17:44.093Z,101977.84
2023-04-17T07:20:11.851Z,101975.69
2023-04-17T07:22:40.135Z,101982.28
2023-04-17T07:25:07.920Z,101978.13
2023-04-17T07:27:36.397Z,101983.94
2023-04-17T07:30:04.215Z,101985.06
2023-04-17T07:32:32.323Z,102005.13
2023-04-17T07:34:59.634Z,102005.38
2023-04-17T07:37:27.128Z,102002.63
2023-04-17T07:39:54.777Z,102014.75
2023-04-17T07:42:22.143Z,101999.06
2023-04-17T07:44:49.713Z,102005.41
2023-04-17T07:47:17.056Z,102002.09
2023-04-17T07:49:48.742Z,102000.44
2023-04-17T07:52:18.161Z,101999.31
2023-04-17T07:54:45.669Z,102002.34
2023-04-17T07:57:14.958Z,101997.41
2023-04-17T07:59:42.326Z,101999.31
2023-04-17T08:02:10.038Z,102002.63
2023-04-17T08:04:40.337Z,102001.25
2023-04-17T08:07:10.658Z,102006.50
2023-04-17T08:09:38.635Z,102003.75
2023-04-17T08:12:06.420Z,102002.06
2023-04-17T08:14:33.804Z,102005.13
2023-04-17T08:17:01.893Z,102008.94
2023-04-17T08:19:30.006Z,102010.88
2023-04-17T08:22:04.804Z,102001.56
2023-04-17T08:24:32.100Z,101999.88
2023-04-17T08:26:59.458Z,102005.41
2023-04-17T08:29:26.991Z,102010.91
2023-04-17T08:32:10.357Z,102007.53
2023-04-17T08:34:40.648Z,102013.03
2023-04-17T08:37:07.928Z,102011.97
2023-04-17T08:39:35.407Z,102008.06
2023-04-17T08:42:07.964Z,102015.25
2023-04-17T08:44:35.853Z,102007.53
2023-04-17T08:47:04.657Z,102012.81
2023-04-17T08:49:35.916Z,102008.06
2023-04-17T08:52:04.550Z,102008.69
2023-04-17T08:54:33.524Z,102009.25
2023-04-17T08:57:04.968Z,102001.00
2023-04-17T08:59:32.541Z,102002.09
2023-04-17T09:02:07.584Z,102005.06
2023-04-17T09:04:43.156Z,101994.66
2023-04-17T09:07:12.335Z,102004.81
2023-04-17T09:09:56.401Z,101999.56
2023-04-17T09:12:25.454Z,102003.00
2023-04-17T09:14:53.331Z,102004.34
2023-04-17T09:17:21.572Z,101999.81
2023-04-17T09:20:12.386Z,101999.44
2023-04-17T09:22:40.616Z,102002.41
2023-04-17T09:25:18.713Z,101996.16
2023-04-17T09:27:46.306Z,101996.53
2023-04-17T09:30:13.845Z,101999.28
2023-04-17T09:32:41.260Z,101999.66
2023-04-17T09:35:08.958Z,102001.94
2023-04-17T09:37:49.634Z,102005.03
2023-04-17T09:40:18.817Z,102006.41
2023-04-17T09:43:00.650Z,102008.44
2023-04-17T09:45:33.455Z,101999.50
2023-04-17T09:48:01.326Z,102005.19
2023-04-17T09:50:29.049Z,101992.88
2023-04-17T09:52:56.628Z,101993.38
2023-04-17T09:55:25.084Z,101988.69
2023-04-17T09:57:56.157Z,101982.00
2023-04-17T10:00:27.102Z,101990.00
2023-04-17T10:02:56.154Z,101986.38
2023-04-17T10:05:26.081Z,101983.78
2023-04-17T10:07:53.376Z,101998.91
2023-04-17T10:10:26.045Z,101992.75
2023-04-17T10:12:59.383Z,101991.47
2023-04-17T10:15:27.320Z,102001.94
2023-04-17T10:17:56.687Z,101998.97
2023-04-17T10:20:24.008Z,102011.75
2023-04-17T10:22:56.522Z,102000.84
2023-04-17T10:25:28.392Z,102003.72
2023-04-17T10:28:00.503Z,102006.13
2023-04-17T10:30:54.712Z,101998.13
2023-04-17T10:33:25.060Z,101986.94
2023-04-17T10:35:53.533Z,101992.88
2023-04-17T10:38:36.444Z,101978.19
2023-04-17T10:41:08.940Z,101996.72
2023-04-17T10:43:43.624Z,101987.72
2023-04-17T10:46:14.883Z,101988.66
2023-04-17T10:48:52.320Z,101987.09
2023-04-17T10:51:27.175Z,101992.03
2023-04-17T10:53:54.694Z,101988.63
2023-04-17T10:56:27.039Z,101992.63
2023-04-17T10:59:09.015Z,101979.41
2023-04-17T11:01:42.831Z,101978.72
2023-04-17T11:04:11.406Z,101978.38
2023-04-17T11:06:43.040Z,101985.59
2023-04-17T11:09:11.050Z,101985.50
2023-04-17T11:11:44.115Z,101986.03
2023-04-17T11:14:17.743Z,101977.16
2023-04-17T11:16:47.037Z,101982.09
2023-04-17T11:19:19.153Z,101983.47
2023-04-17T11:21:48.243Z,101969.63
2023-04-17T11:24:28.566Z,101961.41
2023-04-17T11:26:58.324Z,101956.75
2023-04-17T11:29:26.396Z,101953.63
2023-04-17T11:31:55.522Z,101954.59
2023-04-17T11:34:23.641Z,101957.56
2023-04-17T11:36:51.398Z,101947.00
2023-04-17T11:39:19.964Z,101958.06
2023-04-17T11:41:47.413Z,101949.13
2023-04-17T11:44:15.631Z,101949.50
2023-04-17T11:46:43.126Z,101951.50
2023-04-17T11:49:11.787Z,101959.00
2023-04-17T11:51:39.387Z,101950.59
2023-04-17T11:54:06.654Z,101967.84
2023-04-17T11:56:34.229Z,101962.84
2023-04-17T11:59:03.772Z,101965.97
2023-04-17T12:01:31.415Z,101961.66
2023-04-17T12:03:59.394Z,101968.03
2023-04-17T12:06:37.326Z,101970.94
2023-04-17T12:09:07.069Z,101975.59
2023-04-17T12:11:36.249Z,101960.06
2023-04-17T12:14:05.453Z,101966.31
2023-04-17T12:16:32.737Z,101966.41
2023-04-17T12:19:00.298Z,101959.81
2023-04-17T12:21:27.721Z,101977.03
2023-04-17T12:23:55.261Z,101964.63
2023-04-17T12:26:22.500Z,101966.91
2023-04-17T12:28:49.835Z,101957.22
2023-04-17T12:31:17.316Z,101971.88
2023-04-17T12:33:44.738Z,101972.59
2023-04-17T12:36:12.093Z,101964.88
2023-04-17T12:38:39.478Z,101969.25
2023-04-17T12:41:06.887Z,101964.31
2023-04-17T12:43:35.808Z,101960.03
2023-04-17T12:46:03.338Z,101957.72
2023-04-17T12:48:32.838Z,101966.03
2023-04-17T12:51:00.497Z,101961.31
2023-04-17T12:53:27.790Z,101949.53
2023-04-17T12:55:55.060Z,101957.44
2023-04-17T12:58:22.375Z,101971.19
2023-04-17T13:00:49.671Z,101959.25
2023-04-17T13:03:17.086Z,101950.13
2023-04-17T13:05:44.566Z,101954.78
2023-04-17T13:08:14.830Z,101947.69
2023-04-17T13:10:42.587Z,101964.78
2023-04-17T13:13:10.275Z,101955.31
2023-04-17T13:15:37.653Z,101951.78
2023-04-17T13:18:05.404Z,101953.72
2023-04-17T13:20:32.730Z,101948.06
2023-04-17T13:23:00.077Z,101946.66
2023-04-17T13:25:27.854Z,101951.78
2023-04-17T13:27:55.695Z,101943.00
2023-04-17T13:30:23.045Z,101953.66
2023-04-17T13:32:50.466Z,101953.06
2023-04-17T13:35:18.061Z,101942.84
2023-04-17T13:37:45.329Z,101938.09
2023-04-17T13:40:12.997Z,101936.56
2023-04-17T13:42:40.488Z,101930.19
2023-04-17T13:45:08.358Z,101943.88
2023-04-17T13:47:35.669Z,101931.28
2023-04-17T13:50:03.496Z,101941.75
2023-04-17T13:52:30.791Z,101941.63
2023-04-17T13:54:58.016Z,101932.41
2023-04-17T13:57:25.280Z,101941.00
2023-04-17T13:59:52.619Z,101947.81
2023-04-17T14:02:20.087Z,101944.44
2023-04-17T14:04:47.906Z,101948.56
2023-04-17T14:07:16.601Z,101935.03
2023-04-17T14:09:43.918Z,101929.22
2023-04-17T14:12:11.213Z,101928.03
2023-04-17T14:14:38.441Z,101918.72
2023-04-17T14:17:05.944Z,101925.94
2023-04-17T14:19:33.239Z,101929.91
2023-04-17T14:22:00.530Z,101919.47
2023-04-17T14:24:27.821Z,101922.31
2023-04-17T14:26:57.757Z,101918.63
2023-04-17T14:29:25.246Z,101915.44
2023-04-17T14:31:53.374Z,101912.34
2023-04-17T14:34:20.850Z,101911.19
2023-04-17T14:36:48.767Z,101905.81
2023-04-17T14:39:16.161Z,101900.06
2023-04-17T14:41:43.570Z,101897.97
2023-04-17T14:44:11.156Z,101897.50
2023-04-17T14:46:38.734Z,101895.09
2023-04-17T14:49:06.044Z,101892.81
2023-04-17T14:51:33.298Z,101891.34
2023-04-17T14:54:00.605Z,101895.88
2023-04-17T14:56:27.892Z,101883.78
2023-04-17T14:58:55.284Z,101878.75
2023-04-17T15:01:22.546Z,101870.34
2023-04-17T15:03:49.916Z,101867.78
2023-04-17T15:06:18.780Z,101869.16
2023-04-17T15:08:46.271Z,101865.19
2023-04-17T15:11:14.118Z,101861.78
2023-04-17T15:13:41.336Z,101857.53
2023-04-17T15:16:09.259Z,101863.94
2023-04-17T15:18:36.763Z,101853.97
2023-04-17T15:21:04.081Z,101848.16
2023-04-17T15:23:31.657Z,101847.19
2023-04-17T15:26:01.157Z,101858.53
2023-04-17T15:28:28.511Z,101846.53
2023-04-17T15:30:56.592Z,101846.22
2023-04-17T15:33:23.908Z,101844.19
2023-04-17T15:35:58.901Z,101847.59
2023-04-17T15:38:26.853Z,101840.84
2023-04-17T15:40:54.513Z,101843.38
2023-04-17T15:43:22.022Z,101849.97
2023-04-17T15:45:49.510Z,101847.72
2023-04-17T15:48:17.037Z,101840.78
2023-04-17T15:50:44.322Z,101837.50
2023-04-17T15:53:13.181Z,101844.22
2023-04-17T15:55:41.251Z,101831.16
2023-04-17T15:58:08.744Z,101829.47
2023-04-17T16:00:36.009Z,101832.09
2023-04-17T16:03:03.643Z,101821.50
2023-04-17T16:05:31.192Z,101825.56
2023-04-17T16:07:58.418Z,101819.66
2023-04-17T16:10:25.634Z,101822.25
2023-04-17T16:12:52.977Z,101823.47
2023-04-17T16:15:20.359Z,101821.25
2023-04-17T16:17:48.888Z,101822.34
2023-04-17T16:20:16.507Z,101823.09
2023-04-17T16:22:43.904Z,101821.97
2023-04-17T16:25:13.988Z,101810.53
2023-04-17T16:27:41.295Z,101803.72
2023-04-17T16:30:09.520Z,101805.53
2023-04-17T16:32:36.874Z,101805.97
2023-04-17T16:35:04.434Z,101794.56
2023-04-17T16:37:31.649Z,101810.03
2023-04-17T16:40:04.408Z,101794.47
2023-04-17T16:42:32.428Z,101796.44
2023-04-17T16:44:59.984Z,101794.34
2023-04-17T16:47:30.383Z,101798.59
2023-04-17T16:49:57.703Z,101800.97
2023-04-17T16:52:25.153Z,101797.19
2023-04-17T16:54:52.483Z,101802.38
2023-04-17T16:57:19.782Z,101805.53
2023-04-17T16:59:47.004Z,101793.13
2023-04-17T17:02:14.312Z,101795.09
2023-04-17T17:04:41.773Z,101799.63
2023-04-17T17:07:09.252Z,101802.03
2023-04-17T17:09:36.627Z,101793.47
2023-04-17T17:12:04.171Z,101795.44
2023-04-17T17:14:31.467Z,101802.03
2023-04-17T17:16:58.891Z,101803.75
2023-04-17T17:19:26.134Z,101802.41
2023-04-17T17:21:55.284Z,101792.31
2023-04-17T17:24:23.434Z,101803.09
2023-04-17T17:26:50.715Z,101808.22
2023-04-17T17:29:18.092Z,101798.81
2023-04-17T17:31:45.448Z,101800.16
2023-04-17T17:36:43.062Z,101799.13
2023-04-17T17:39:10.484Z,101800.44
2023-04-17T17:41:37.956Z,101796.56
2023-04-17T17:44:05.248Z,101799.19
2023-04-17T17:46:34.347Z,101801.38
2023-04-17T17:49:01.677Z,101801.53
2023-04-17T17:51:29.073Z,101799.41
2023-04-17T17:53:56.309Z,101812.19
2023-04-17T17:56:23.735Z,101803.59
2023-04-17T17:58:51.186Z,101806.78
2023-04-17T18:01:18.501Z,101803.31
2023-04-17T18:03:48.749Z,101806.38
2023-04-17T18:06:17.132Z,101793.66
2023-04-17T18:08:44.480Z,101809.63
2023-04-17T18:11:13.747Z,101795.91
2023-04-17T18:13:41.023Z,101804.09
2023-04-17T18:16:08.629Z,101802.09
2023-04-17T18:18:36.132Z,101808.06
2023-04-17T18:21:07.424Z,101796.94
2023-04-17T18:23:35.514Z,101795.22
2023-04-17T18:26:03.936Z,101805.75
2023-04-17T18:28:32.756Z,101807.47
2023-04-17T18:31:00.119Z,101797.56
2023-04-17T18:33:28.974Z,101797.34
2023-04-17T18:35:56.544Z,101807.34
2023-04-17T18:38:23.879Z,101808.47
2023-04-17T18:40:59.435Z,101805.56
2023-04-17T18:43:27.686Z,101813.38
2023-04-17T18:45:54.977Z,101816.31
2023-04-17T18:48:23.765Z,101811.81
2023-04-17T18:50:54.610Z,101814.88
2023-04-17T18:53:22.350Z,101808.16
2023-04-17T18:55:49.706Z,101810.75
2023-04-17T18:58:20.198Z,101807.34
2023-04-17T19:00:48.078Z,101806.38
2023-04-17T19:03:15.398Z,101824.56
2023-04-17T19:05:42.683Z,101809.59
2023-04-17T19:08:10.025Z,101813.81
2023-04-17T19:10:39.924Z,101823.25
2023-04-17T19:13:09.849Z,101831.91
2023-04-17T19:15:37.387Z,101829.13
2023-04-17T19:18:06.603Z,101836.94
2023-04-17T19:20:34.265Z,101831.44
2023-04-17T19:23:01.989Z,101845.28
2023-04-17T19:25:29.594Z,101844.56
2023-04-17T19:27:56.822Z,101839.81
2023-04-17T19:30:24.242Z,101830.41
2023-04-17T19:32:51.664Z,101836.28
2023-04-17T19:35:19.086Z,101841.19
2023-04-17T19:37:46.544Z,101845.09
2023-04-17T19:40:24.505Z,101839.78
2023-04-17T19:42:53.159Z,101838.34
2023-04-17T19:45:23.285Z,101838.66
2023-04-17T19:47:56.240Z,101834.25
2023-04-17T19:50:26.455Z,101853.28
2023-04-17T19:52:54.353Z,101846.47
2023-04-17T19:55:21.822Z,101840.28
2023-04-17T19:57:50.414Z,101839.28
2023-04-17T20:00:17.888Z,101849.13
2023-04-17T20:02:45.376Z,101841.25
2023-04-17T20:05:12.697Z,101849.88
2023-04-17T20:07:40.037Z,101843.84
2023-04-17T20:10:07.694Z,101841.16
2023-04-17T20:12:35.197Z,101848.69
2023-04-17T20:15:02.537Z,101851.56
2023-04-17T20:17:29.952Z,101856.66
2023-04-17T20:19:57.242Z,101847.97
2023-04-17T20:22:24.526Z,101849.78
2023-04-17T20:24:51.853Z,101846.41
2023-04-17T20:27:19.197Z,101855.28
2023-04-17T20:29:46.802Z,101846.53
2023-04-17T20:32:14.124Z,101840.19
2023-04-17T20:34:41.392Z,101843.72
2023-04-17T20:37:08.764Z,101840.13
2023-04-17T20:39:36.114Z,101842.63
2023-04-17T20:42:03.400Z,101842.69
2023-04-17T20:44:32.057Z,101845.75
2023-04-17T20:46:59.455Z,101835.41
2023-04-17T20:49:26.693Z,101837.44
2023-04-17T20:51:54.163Z,101842.09
2023-04-17T20:54:23.133Z,101834.72
2023-04-17T20:56:50.526Z,101834.34
2023-04-17T20:59:17.785Z,101828.16
2023-04-17T21:01:45.075Z,101838.31
2023-04-17T21:04:12.665Z,101837.88
2023-04-17T21:06:40.428Z,101830.78
2023-04-17T21:09:08.785Z,101842.94
2023-04-17T21:11:36.048Z,101830.00
2023-04-17T21:14:03.818Z,101828.09
2023-04-17T21:16:31.364Z,101826.66
2023-04-17T21:18:58.733Z,101827.69
2023-04-17T21:21:26.858Z,101825.22
2023-04-17T21:23:54.143Z,101829.16
2023-04-17T21:26:21.919Z,101825.88
2023-04-17T21:28:49.120Z,101826.41
2023-04-17T21:31:16.536Z,101829.16
2023-04-17T21:33:44.014Z,101820.69
2023-04-17T21:36:11.426Z,101822.13
2023-04-17T21:38:39.271Z,101818.63
2023-04-17T21:41:06.539Z,101817.75
2023-04-17T21:43:33.903Z,101810.94
2023-04-17T21:46:01.345Z,101815.81
2023-04-17T21:48:28.726Z,101813.81
2023-04-17T21:51:02.401Z,101805.53
2023-04-17T21:53:30.359Z,101812.91
2023-04-17T21:55:57.766Z,101804.34
2023-04-17T21:58:25.073Z,101806.88
2023-04-17T22:00:52.414Z,101815.81
2023-04-17T22:03:21.193Z,101795.97
2023-04-17T22:05:52.701Z,101802.03
2023-04-17T22:08:20.026Z,101801.25
2023-04-17T22:10:47.283Z,101801.56
2023-04-17T22:13:15.929Z,101801.97
2023-04-17T22:15:43.991Z,101805.69
2023-04-17T22:18:11.213Z,101795.00
2023-04-17T22:20:38.514Z,101803.09
2023-04-17T22:23:05.913Z,101798.94
2023-04-17T22:25:33.217Z,101788.97
2023-04-17T22:28:00.495Z,101788.34
2023-04-17T22:30:27.749Z,101796.16
2023-04-17T22:32:56.505Z,101791.31
2023-04-17T22:35:23.851Z,101794.72
2023-04-17T22:37:51.144Z,101795.13
2023-04-17T22:40:18.548Z,101789.88
2023-04-17T22:42:45.996Z,101798.31
2023-04-17T22:45:13.203Z,101796.72
2023-04-17T22:47:41.153Z,101794.19
2023-04-17T22:50:10.823Z,101799.38
2023-04-17T22:52:38.116Z,101795.00
2023-04-17T22:55:06.487Z,101804.66
2023-04-17T22:57:34.135Z,101796.09
2023-04-17T23:00:01.550Z,101803.72
2023-04-17T23:02:28.974Z,101804.31
2023-04-17T23:04:56.393Z,101798.00
2023-04-17T23:07:23.821Z,101800.13
2023-04-17T23:09:51.047Z,101794.19
2023-04-17T23:12:18.365Z,101787.13
2023-04-17T23:14:46.120Z,101793.09
2023-04-17T23:17:13.367Z,101789.50
2023-04-17T23:19:40.783Z,101789.50
2023-04-17T23:22:08.202Z,101800.34
2023-04-17T23:24:35.643Z,101796.41
2023-04-17T23:27:02.958Z,101791.44
2023-04-17T23:29:30.408Z,101794.25
2023-04-17T23:31:58.881Z,101800.88
2023-04-17T23:34:27.569Z,101793.56
2023-04-17T23:36:54.955Z,101795.94
2023-04-17T23:39:22.442Z,101807.75
2023-04-17T23:41:52.310Z,101798.28
2023-04-17T23:44:19.630Z,101796.47
2023-04-17T23:46:47.017Z,101785.94
2023-04-17T23:49:14.362Z,101796.09
2023-04-17T23:51:41.764Z,101790.22
2023-04-17T23:54:09.025Z,101784.66
2023-04-17T23:56:36.298Z,101789.97
2023-04-17T23:59:03.559Z,101791.53
